createdAt,value
2023-05-19T00:00:46.953Z,4.97
2023-05-19T00:03:53.753Z,4.20
2023-05-19T00:06:57.518Z,5.95
2023-05-19T00:10:00.619Z,4.10
2023-05-19T00:13:03.200Z,3.50
2023-05-19T00:16:06.447Z,5.13
2023-05-19T00:19:10.349Z,6.45
2023-05-19T00:22:14.573Z,4.35
2023-05-19T00:25:17.258Z,6.47
2023-05-19T00:28:20.050Z,4.62
2023-05-19T00:31:22.914Z,5.90
2023-05-19T00:34:25.772Z,6.55
2023-05-19T00:37:28.269Z,6.20
2023-05-19T00:40:31.525Z,6.50
2023-05-19T00:43:37.040Z,7.12
2023-05-19T00:46:39.932Z,6.37
2023-05-19T00:49:42.408Z,5.85
2023-05-19T00:52:45.205Z,4.25
2023-05-19T00:55:49.481Z,5.47
2023-05-19T00:58:52.257Z,5.43
2023-05-19T01:01:54.924Z,6.93
2023-05-19T01:04:57.825Z,5.82
2023-05-19T01:08:00.344Z,6.82
2023-05-19T01:11:04.100Z,4.75
2023-05-19T01:14:06.780Z,6.20
2023-05-19T01:17:21.004Z,6.30
2023-05-19T01:20:53.988Z,6.82
2023-05-19T01:24:06.373Z,6.05
2023-05-19T01:27:21.764Z,5.53
2023-05-19T01:30:33.371Z,6.37
2023-05-19T01:33:36.194Z,7.40
2023-05-19T01:36:39.256Z,6.60
2023-05-19T01:39:43.064Z,7.90
2023-05-19T01:42:46.877Z,6.25
2023-05-19T01:45:49.950Z,6.97
2023-05-19T01:48:52.881Z,6.97
2023-05-19T01:51:56.243Z,6.37
2023-05-19T01:54:59.091Z,7.35
2023-05-19T01:58:16.529Z,5.47
2023-05-19T02:01:25.387Z,7.68
2023-05-19T02:04:40.015Z,7.60
2023-05-19T02:07:52.459Z,5.05
2023-05-19T02:10:58.806Z,6.87
2023-05-19T02:14:03.546Z,6.90
2023-05-19T02:17:06.466Z,6.12
2023-05-19T02:20:09.904Z,7.93
2023-05-19T02:23:12.663Z,7.78
2023-05-19T02:26:15.722Z,6.82
2023-05-19T02:29:19.164Z,8.82
2023-05-19T02:32:22.041Z,7.22
2023-05-19T02:35:24.840Z,6.20
2023-05-19T02:38:27.675Z,5.30
2023-05-19T02:41:30.798Z,8.15
2023-05-19T02:44:33.472Z,7.37
2023-05-19T02:47:37.157Z,6.97
2023-05-19T02:50:39.935Z,5.53
2023-05-19T02:53:42.771Z,7.37
2023-05-19T02:56:45.367Z,5.95
2023-05-19T02:59:48.104Z,6.75
2023-05-19T03:02:53.088Z,6.78
2023-05-19T03:05:56.256Z,8.17
2023-05-19T03:08:58.968Z,7.30
2023-05-19T03:12:04.045Z,8.30
2023-05-19T03:15:07.256Z,5.07
2023-05-19T03:18:10.113Z,7.57
2023-05-19T03:21:12.766Z,7.43
2023-05-19T03:24:16.164Z,8.50
2023-05-19T03:27:18.664Z,6.82
2023-05-19T03:30:22.227Z,7.95
2023-05-19T03:33:28.103Z,7.40
2023-05-19T03:36:39.704Z,6.83
2023-05-19T03:39:44.455Z,7.93
2023-05-19T03:42:47.328Z,8.15
2023-05-19T03:45:49.873Z,5.22
2023-05-19T03:48:54.421Z,8.57
2023-05-19T03:51:58.206Z,5.70
2023-05-19T03:55:01.868Z,6.78
2023-05-19T03:58:04.450Z,7.57
2023-05-19T04:01:07.272Z,5.20
2023-05-19T04:04:10.123Z,5.40
2023-05-19T04:07:12.703Z,4.77
2023-05-19T04:10:17.397Z,5.65
2023-05-19T04:13:21.179Z,7.57
2023-05-19T04:16:24.097Z,7.37
2023-05-19T04:19:26.705Z,5.43
2023-05-19T04:22:30.985Z,7.93
2023-05-19T04:25:33.658Z,8.35
2023-05-19T04:28:39.941Z,6.95
2023-05-19T04:31:42.432Z,7.93
2023-05-19T04:34:46.122Z,9.32
2023-05-19T04:37:50.484Z,10.00
2023-05-19T04:40:53.945Z,7.10
2023-05-19T04:43:57.643Z,6.53
2023-05-19T04:47:00.867Z,4.43
2023-05-19T04:50:04.207Z,6.32
2023-05-19T04:53:07.330Z,6.93
2023-05-19T04:56:10.233Z,7.60
2023-05-19T04:59:13.118Z,8.23
2023-05-19T05:02:16.286Z,8.10
2023-05-19T05:05:19.308Z,7.95
2023-05-19T05:08:23.504Z,7.43
2023-05-19T05:11:26.845Z,7.82
2023-05-19T05:14:30.146Z,7.80
2023-05-19T05:17:35.642Z,7.90
2023-05-19T05:20:38.790Z,7.87
2023-05-19T05:23:41.879Z,8.00
2023-05-19T05:26:45.777Z,6.93
2023-05-19T05:29:50.587Z,7.68
2023-05-19T05:32:55.888Z,7.80
2023-05-19T05:36:01.652Z,7.78
2023-05-19T05:39:05.596Z,7.67
2023-05-19T05:42:11.106Z,8.13
2023-05-19T05:45:14.229Z,7.32
2023-05-19T05:48:17.646Z,7.10
2023-05-19T05:51:23.780Z,7.55
2023-05-19T05:57:31.075Z,7.05
2023-05-19T06:00:34.917Z,7.03
2023-05-19T06:03:44.291Z,7.82
2023-05-19T06:06:48.017Z,6.97
2023-05-19T06:09:52.364Z,6.93
2023-05-19T06:12:55.374Z,5.97
2023-05-19T06:16:00.453Z,7.00
2023-05-19T06:19:04.853Z,6.03
2023-05-19T06:22:07.759Z,5.12
2023-05-19T06:25:10.397Z,6.13
2023-05-19T06:28:13.690Z,7.07
2023-05-19T06:31:16.667Z,5.68
2023-05-19T06:34:21.091Z,7.05
2023-05-19T06:37:23.972Z,6.53
2023-05-19T06:40:27.010Z,5.90
2023-05-19T06:43:30.313Z,6.07
2023-05-19T06:46:33.402Z,6.60
2023-05-19T06:49:36.227Z,6.22
2023-05-19T06:52:39.517Z,6.90
2023-05-19T06:55:54.784Z,6.73
2023-05-19T06:59:02.264Z,4.78
2023-05-19T07:02:05.299Z,6.90
2023-05-19T07:05:09.298Z,7.18
2023-05-19T07:08:12.089Z,6.82
2023-05-19T07:11:15.414Z,5.60
2023-05-19T07:14:18.504Z,6.72
2023-05-19T07:17:22.460Z,7.60
2023-05-19T07:20:25.127Z,6.80
2023-05-19T07:23:27.850Z,8.07
2023-05-19T07:26:30.431Z,8.17
2023-05-19T07:29:33.423Z,8.20
2023-05-19T07:32:37.667Z,7.35
2023-05-19T07:35:42.675Z,7.20
2023-05-19T07:38:46.697Z,7.37
2023-05-19T07:41:52.853Z,5.97
2023-05-19T07:44:55.417Z,6.18
2023-05-19T07:47:58.324Z,7.10
2023-05-19T07:51:00.937Z,7.00
2023-05-19T07:54:03.785Z,7.65
2023-05-19T07:57:06.337Z,7.90
2023-05-19T08:00:12.121Z,7.18
2023-05-19T08:03:17.906Z,7.18
2023-05-19T08:06:21.302Z,7.35
2023-05-19T08:09:24.525Z,7.75
2023-05-19T08:12:28.879Z,6.80
2023-05-19T08:15:33.105Z,6.12
2023-05-19T08:18:37.365Z,7.00
2023-05-19T08:21:42.364Z,7.35
2023-05-19T08:24:45.197Z,7.30
2023-05-19T08:27:47.696Z,7.37
2023-05-19T08:30:52.325Z,7.05
2023-05-19T08:33:54.914Z,7.43
2023-05-19T08:36:58.033Z,6.57
2023-05-19T08:40:01.619Z,6.65
2023-05-19T08:43:08.096Z,7.10
2023-05-19T08:46:13.870Z,6.47
2023-05-19T08:49:17.909Z,8.40
2023-05-19T08:52:55.744Z,7.47
2023-05-19T08:55:59.003Z,7.70
2023-05-19T08:59:02.300Z,7.00
2023-05-19T09:02:05.225Z,6.97
2023-05-19T09:05:09.813Z,6.95
2023-05-19T09:08:12.719Z,5.40
2023-05-19T09:11:17.289Z,6.22
2023-05-19T09:14:19.886Z,7.47
2023-05-19T09:17:22.795Z,6.78
2023-05-19T09:20:25.314Z,6.85
2023-05-19T09:26:39.313Z,5.70
2023-05-19T09:29:42.558Z,5.63
2023-05-19T09:32:47.173Z,5.12
2023-05-19T09:35:50.043Z,5.40
2023-05-19T09:38:52.673Z,5.60
2023-05-19T09:41:58.529Z,5.87
2023-05-19T09:45:02.247Z,5.73
2023-05-19T09:48:05.838Z,5.65
2023-05-19T09:51:10.842Z,6.35
2023-05-19T09:54:16.891Z,6.90
2023-05-19T09:57:26.895Z,6.60
2023-05-19T10:00:31.473Z,5.90
2023-05-19T10:03:34.911Z,5.75
2023-05-19T10:06:37.575Z,5.10
2023-05-19T10:09:41.788Z,5.68
2023-05-19T10:12:44.328Z,5.30
2023-05-19T10:15:58.047Z,4.50
2023-05-19T10:19:02.687Z,4.45
2023-05-19T10:22:05.536Z,4.03
2023-05-19T10:25:09.897Z,4.68
2023-05-19T10:28:15.179Z,5.25
2023-05-19T10:31:19.615Z,4.90
2023-05-19T10:34:57.359Z,5.35
2023-05-19T10:38:44.651Z,4.95
2023-05-19T10:42:18.174Z,4.97
2023-05-19T10:45:22.716Z,5.00
2023-05-19T10:48:25.771Z,5.00
2023-05-19T10:51:32.165Z,5.00
2023-05-19T10:54:43.459Z,5.45
2023-05-19T10:57:56.929Z,4.90
2023-05-19T11:01:03.049Z,5.03
2023-05-19T11:07:19.543Z,4.72
2023-05-19T11:10:25.305Z,4.07
2023-05-19T11:13:28.717Z,4.93
2023-05-19T11:16:34.655Z,4.28
2023-05-19T11:19:37.574Z,4.40
2023-05-19T11:22:41.444Z,4.20
2023-05-19T11:25:52.226Z,3.90
2023-05-19T11:28:54.764Z,3.28
2023-05-19T11:31:58.853Z,3.55
2023-05-19T11:35:04.531Z,2.80
2023-05-19T11:38:07.426Z,3.30
2023-05-19T11:41:09.935Z,3.58
2023-05-19T11:44:12.821Z,3.28
2023-05-19T11:47:16.878Z,3.37
2023-05-19T11:50:20.652Z,3.47
2023-05-19T11:53:23.370Z,3.20
2023-05-19T11:56:26.236Z,3.30
2023-05-19T11:59:36.418Z,3.35
2023-05-19T12:02:39.374Z,2.83
2023-05-19T12:05:47.405Z,2.43
2023-05-19T12:08:54.816Z,2.70
2023-05-19T12:11:58.450Z,2.75
2023-05-19T12:15:03.617Z,2.87
2023-05-19T12:18:07.546Z,2.67
2023-05-19T12:21:10.347Z,2.87
2023-05-19T12:24:13.598Z,2.90
2023-05-19T12:27:28.260Z,2.58
2023-05-19T12:30:32.577Z,2.70
2023-05-19T12:33:35.987Z,2.20
2023-05-19T12:36:38.873Z,2.23
2023-05-19T12:39:42.922Z,2.28
2023-05-19T12:42:45.760Z,2.08
2023-05-19T12:45:48.858Z,1.77
2023-05-19T12:48:51.818Z,1.83
2023-05-19T12:51:54.496Z,1.60
2023-05-19T12:55:02.270Z,1.83
2023-05-19T12:58:06.916Z,2.25
2023-05-19T13:01:17.532Z,2.20
2023-05-19T13:04:20.213Z,1.58
2023-05-19T13:07:23.098Z,2.00
2023-05-19T13:10:29.448Z,1.83
2023-05-19T13:13:32.448Z,2.08
2023-05-19T13:16:35.060Z,1.90
2023-05-19T13:19:38.083Z,2.30
2023-05-19T13:22:40.866Z,1.70
2023-05-19T13:25:44.029Z,2.03
2023-05-19T13:28:46.539Z,1.70
2023-05-19T13:31:49.302Z,2.08
2023-05-19T13:34:51.863Z,1.95
2023-05-19T13:37:54.857Z,1.73
2023-05-19T13:40:57.442Z,1.90
2023-05-19T13:44:01.169Z,2.00
2023-05-19T13:47:03.755Z,2.15
2023-05-19T13:50:06.944Z,2.45
2023-05-19T13:53:11.412Z,1.97
2023-05-19T13:56:15.793Z,2.20
2023-05-19T13:59:21.570Z,2.40
2023-05-19T14:02:24.447Z,1.95
2023-05-19T14:05:28.866Z,2.10
2023-05-19T14:08:31.576Z,2.20
2023-05-19T14:11:34.515Z,1.98
2023-05-19T14:14:37.123Z,2.12
2023-05-19T14:17:39.947Z,1.90
2023-05-19T14:20:42.478Z,1.95
2023-05-19T14:23:47.779Z,2.03
2023-05-19T14:26:50.680Z,2.10
2023-05-19T14:29:55.303Z,1.80
2023-05-19T14:32:58.158Z,2.00
2023-05-19T14:36:01.413Z,1.77
2023-05-19T14:39:03.924Z,1.80
2023-05-19T14:42:06.728Z,1.95
2023-05-19T14:45:09.824Z,1.75
2023-05-19T14:48:12.656Z,1.95
2023-05-19T14:51:15.254Z,1.90
2023-05-19T14:54:18.041Z,2.67
2023-05-19T14:57:20.474Z,1.70
2023-05-19T15:00:26.037Z,1.98
2023-05-19T15:03:28.567Z,1.98
2023-05-19T15:06:31.530Z,1.70
2023-05-19T15:09:34.051Z,1.80
2023-05-19T15:12:36.879Z,1.98
2023-05-19T15:15:39.346Z,1.90
2023-05-19T15:18:42.194Z,2.25
2023-05-19T15:21:45.763Z,1.87
2023-05-19T15:24:48.745Z,2.13
2023-05-19T15:27:51.295Z,2.53
2023-05-19T15:30:54.095Z,2.25
2023-05-19T15:33:56.782Z,2.03
2023-05-19T15:37:00.234Z,2.70
2023-05-19T15:43:06.487Z,2.60
2023-05-19T15:46:09.054Z,2.83
2023-05-19T15:49:12.824Z,2.90
2023-05-19T15:52:34.453Z,2.40
2023-05-19T15:55:37.263Z,2.53
2023-05-19T15:58:39.864Z,2.17
2023-05-19T16:01:43.030Z,4.28
2023-05-19T16:04:46.023Z,2.67
2023-05-19T16:07:48.455Z,2.45
2023-05-19T16:10:51.220Z,2.00
2023-05-19T16:13:53.742Z,2.17
2023-05-19T16:16:56.931Z,2.60
2023-05-19T16:19:59.391Z,2.33
2023-05-19T16:23:04.088Z,2.72
2023-05-19T16:26:06.625Z,2.30
2023-05-19T16:29:09.393Z,3.12
2023-05-19T16:32:12.058Z,3.15
2023-05-19T16:35:14.986Z,2.80
2023-05-19T16:38:17.449Z,3.15
2023-05-19T16:41:20.198Z,2.37
2023-05-19T16:44:24.525Z,2.90
2023-05-19T16:47:27.438Z,2.58
2023-05-19T16:50:30.744Z,3.00
2023-05-19T16:53:33.641Z,3.20
2023-05-19T16:56:36.203Z,3.00
2023-05-19T16:59:39.006Z,2.80
2023-05-19T17:02:41.602Z,3.45
2023-05-19T17:05:44.568Z,2.87
2023-05-19T17:08:47.155Z,2.87
2023-05-19T17:11:49.947Z,3.20
2023-05-19T17:14:52.596Z,2.62
2023-05-19T17:17:55.460Z,3.00
2023-05-19T17:20:59.443Z,4.18
2023-05-19T17:24:02.323Z,5.15
2023-05-19T17:27:05.053Z,6.40
2023-05-19T17:30:09.233Z,4.05
2023-05-19T17:33:11.781Z,3.33
2023-05-19T17:36:15.840Z,4.47
2023-05-19T17:39:20.172Z,3.87
2023-05-19T17:42:22.985Z,5.97
2023-05-19T17:45:26.519Z,19.40
2023-05-19T17:51:33.007Z,7.47
2023-05-19T17:54:36.057Z,8.10
2023-05-19T18:00:44.232Z,7.65
2023-05-19T18:03:49.437Z,5.00
2023-05-19T18:06:52.711Z,3.10
2023-05-19T18:09:58.157Z,3.33
2023-05-19T18:13:00.992Z,2.87
2023-05-19T18:16:04.207Z,13.05
2023-05-19T18:19:08.436Z,10.00
2023-05-19T18:22:13.006Z,7.15
2023-05-19T18:25:17.015Z,5.50
2023-05-19T18:28:19.983Z,4.40
2023-05-19T18:31:22.529Z,3.50
2023-05-19T18:34:25.579Z,3.00
2023-05-19T18:37:28.688Z,3.28
2023-05-19T18:40:31.757Z,3.25
2023-05-19T18:43:34.462Z,2.50
2023-05-19T18:46:39.102Z,2.58
2023-05-19T18:49:42.134Z,2.65
2023-05-19T18:52:46.500Z,2.65
2023-05-19T18:55:48.993Z,3.35
2023-05-19T18:58:54.522Z,3.37
2023-05-19T19:01:57.857Z,2.85
2023-05-19T19:08:05.676Z,3.12
2023-05-19T19:11:11.292Z,4.53
2023-05-19T19:14:13.775Z,6.30
2023-05-19T19:20:37.911Z,8.02
2023-05-19T19:23:40.709Z,7.22
2023-05-19T19:26:43.180Z,8.80
2023-05-19T19:29:46.195Z,7.20
2023-05-19T19:32:48.711Z,5.93
2023-05-19T19:35:51.677Z,5.32
2023-05-19T19:38:54.178Z,4.30
2023-05-19T19:41:56.960Z,4.20
2023-05-19T19:44:59.452Z,3.20
2023-05-19T19:48:02.390Z,3.75
2023-05-19T19:51:04.909Z,3.70
2023-05-19T19:54:07.755Z,3.60
2023-05-19T19:57:10.310Z,3.37
2023-05-19T20:00:13.859Z,3.30
2023-05-19T20:03:18.497Z,3.45
2023-05-19T20:06:22.825Z,3.60
2023-05-19T20:09:27.249Z,3.83
2023-05-19T20:12:30.192Z,4.80
2023-05-19T20:15:34.788Z,3.97
2023-05-19T20:18:37.358Z,3.80
2023-05-19T20:21:40.111Z,3.45
2023-05-19T20:24:42.627Z,3.95
2023-05-19T20:27:45.508Z,4.40
2023-05-19T20:30:48.066Z,3.77
2023-05-19T20:33:51.017Z,4.18
2023-05-19T20:36:54.514Z,5.50
2023-05-19T20:39:57.288Z,3.95
2023-05-19T20:42:59.784Z,4.25
2023-05-19T20:46:03.899Z,4.43
2023-05-19T20:49:06.634Z,4.43
2023-05-19T20:52:09.469Z,4.70
2023-05-19T20:55:12.008Z,5.03
2023-05-19T20:58:14.789Z,4.10
2023-05-19T21:01:17.468Z,4.77
2023-05-19T21:04:20.510Z,4.45
2023-05-19T21:07:23.061Z,5.15
2023-05-19T21:10:25.815Z,4.95
2023-05-19T21:13:28.307Z,4.78
2023-05-19T21:16:31.604Z,5.43
2023-05-19T21:19:36.940Z,4.93
2023-05-19T21:22:40.872Z,4.90
2023-05-19T21:25:45.315Z,4.15
2023-05-19T21:28:48.220Z,4.80
2023-05-19T21:31:55.999Z,4.93
2023-05-19T21:34:58.951Z,5.37
2023-05-19T21:38:12.122Z,5.07
2023-05-19T21:41:19.480Z,5.32
2023-05-19T21:44:23.854Z,5.60
2023-05-19T21:47:26.900Z,5.50
2023-05-19T21:50:29.370Z,5.75
2023-05-19T21:53:32.892Z,5.68
2023-05-19T21:59:40.619Z,5.55
2023-05-19T22:05:52.967Z,6.40
2023-05-19T22:08:55.692Z,7.35
2023-05-19T22:11:58.403Z,6.62
2023-05-19T22:15:01.123Z,6.70
2023-05-19T22:18:04.081Z,6.70
2023-05-19T22:21:06.692Z,6.40
2023-05-19T22:24:09.536Z,7.00
2023-05-19T22:27:12.113Z,6.40
2023-05-19T22:30:15.713Z,6.87
2023-05-19T22:33:18.308Z,6.00
2023-05-19T22:36:21.175Z,5.87
2023-05-19T22:39:23.684Z,5.65
2023-05-19T22:42:27.004Z,5.87
2023-05-19T22:48:34.857Z,5.47
2023-05-19T22:51:38.246Z,5.70
2023-05-19T22:54:43.075Z,6.22
2023-05-19T22:57:45.590Z,6.10
2023-05-19T23:00:48.369Z,5.93
2023-05-19T23:03:52.647Z,5.93
2023-05-19T23:06:55.641Z,6.45
2023-05-19T23:09:58.102Z,7.12
2023-05-19T23:13:04.675Z,6.12
2023-05-19T23:16:07.703Z,6.32
2023-05-19T23:19:10.603Z,5.93
2023-05-19T23:22:13.144Z,6.37
2023-05-19T23:25:15.954Z,7.28
2023-05-19T23:28:18.477Z,6.53
2023-05-19T23:31:21.265Z,7.32
2023-05-19T23:34:23.814Z,7.60
2023-05-19T23:37:26.528Z,7.68
2023-05-19T23:40:29.032Z,7.68
2023-05-19T23:43:34.749Z,7.57
2023-05-19T23:46:37.383Z,12.55
2023-05-19T23:49:40.294Z,12.83
2023-05-19T23:52:42.791Z,8.38
2023-05-19T23:55:46.214Z,7.50
2023-05-19T23:58:48.719Z,6.70
